sensor_id;sensor_type;location;lat;lon;timestamp;P1;durP1;ratioP1;P2;durP2;ratioP2
72611;SDS011;60655;52.182;4.474;2023-12-28T00:00:17;13.82;;;2.10;;
72611;SDS011;60655;52.182;4.474;2023-12-28T00:02:18;12.00;;;1.67;;
72611;SDS011;60655;52.182;4.474;2023-12-28T00:04:19;11.02;;;1.73;;
72611;SDS011;60655;52.182;4.474;2023-12-28T00:06:20;16.83;;;2.65;;
72611;SDS011;60655;52.182;4.474;2023-12-28T00:08:21;8.95;;;1.63;;
72611;SDS011;60655;52.182;4.474;2023-12-28T00:10:22;11.27;;;2.08;;
72611;SDS011;60655;52.182;4.474;2023-12-28T00:12:27;11.20;;;1.73;;
72611;SDS011;60655;52.182;4.474;2023-12-28T00:14:28;11.52;;;1.80;;
72611;SDS011;60655;52.182;4.474;2023-12-28T00:16:30;11.20;;;2.35;;
72611;SDS011;60655;52.182;4.474;2023-12-28T00:18:33;13.10;;;2.10;;
72611;SDS011;60655;52.182;4.474;2023-12-28T00:20:34;13.25;;;2.50;;
72611;SDS011;60655;52.182;4.474;2023-12-28T00:22:35;17.55;;;1.77;;
72611;SDS011;60655;52.182;4.474;2023-12-28T00:24:37;13.77;;;1.75;;
72611;SDS011;60655;52.182;4.474;2023-12-28T00:26:38;10.07;;;1.92;;
72611;SDS011;60655;52.182;4.474;2023-12-28T00:28:39;13.43;;;1.83;;
72611;SDS011;60655;52.182;4.474;2023-12-28T00:30:40;12.70;;;2.10;;
72611;SDS011;60655;52.182;4.474;2023-12-28T00:32:41;12.13;;;2.08;;
72611;SDS011;60655;52.182;4.474;2023-12-28T00:34:44;11.82;;;2.10;;
72611;SDS011;60655;52.182;4.474;2023-12-28T00:36:45;15.25;;;2.15;;
72611;SDS011;60655;52.182;4.474;2023-12-28T00:38:46;13.65;;;1.95;;
72611;SDS011;60655;52.182;4.474;2023-12-28T00:40:47;12.98;;;1.85;;
72611;SDS011;60655;52.182;4.474;2023-12-28T00:42:48;7.90;;;1.60;;
72611;SDS011;60655;52.182;4.474;2023-12-28T00:44:49;15.05;;;1.98;;
72611;SDS011;60655;52.182;4.474;2023-12-28T00:46:50;10.55;;;1.58;;
72611;SDS011;60655;52.182;4.474;2023-12-28T00:48:51;12.48;;;1.58;;
72611;SDS011;60655;52.182;4.474;2023-12-28T00:50:52;11.65;;;1.88;;
72611;SDS011;60655;52.182;4.474;2023-12-28T00:52:55;11.25;;;1.83;;
72611;SDS011;60655;52.182;4.474;2023-12-28T00:54:56;12.77;;;1.75;;
72611;SDS011;60655;52.182;4.474;2023-12-28T00:56:57;8.05;;;1.63;;
72611;SDS011;60655;52.182;4.474;2023-12-28T00:58:58;15.93;;;2.67;;
72611;SDS011;60655;52.182;4.474;2023-12-28T01:00:59;9.35;;;1.80;;
72611;SDS011;60655;52.182;4.474;2023-12-28T01:03:00;13.90;;;2.10;;
72611;SDS011;60655;52.182;4.474;2023-12-28T01:05:01;6.95;;;1.75;;
72611;SDS011;60655;52.182;4.474;2023-12-28T01:07:02;6.05;;;1.25;;
72611;SDS011;60655;52.182;4.474;2023-12-28T01:09:06;9.35;;;1.40;;
72611;SDS011;60655;52.182;4.474;2023-12-28T01:11:07;8.90;;;1.48;;
72611;SDS011;60655;52.182;4.474;2023-12-28T01:13:09;12.40;;;1.65;;
72611;SDS011;60655;52.182;4.474;2023-12-28T01:15:10;15.25;;;2.13;;
72611;SDS011;60655;52.182;4.474;2023-12-28T01:17:11;9.10;;;1.80;;
72611;SDS011;60655;52.182;4.474;2023-12-28T01:19:12;10.15;;;2.00;;
72611;SDS011;60655;52.182;4.474;2023-12-28T01:21:13;6.43;;;1.67;;
72611;SDS011;60655;52.182;4.474;2023-12-28T01:23:14;6.60;;;1.88;;
72611;SDS011;60655;52.182;4.474;2023-12-28T01:25:15;9.10;;;1.63;;
72611;SDS011;60655;52.182;4.474;2023-12-28T01:27:15;7.68;;;1.40;;
72611;SDS011;60655;52.182;4.474;2023-12-28T01:29:16;15.38;;;1.75;;
72611;SDS011;60655;52.182;4.474;2023-12-28T01:31:17;7.68;;;1.80;;
72611;SDS011;60655;52.182;4.474;2023-12-28T01:33:18;11.50;;;1.80;;
72611;SDS011;60655;52.182;4.474;2023-12-28T01:35:19;10.75;;;1.80;;
72611;SDS011;60655;52.182;4.474;2023-12-28T01:37:20;11.40;;;2.03;;
72611;SDS011;60655;52.182;4.474;2023-12-28T01:39:21;6.82;;;1.48;;
72611;SDS011;60655;52.182;4.474;2023-12-28T01:41:22;10.40;;;1.58;;
72611;SDS011;60655;52.182;4.474;2023-12-28T01:43:23;8.52;;;1.38;;
72611;SDS011;60655;52.182;4.474;2023-12-28T01:45:24;8.52;;;1.45;;
72611;SDS011;60655;52.182;4.474;2023-12-28T01:47:25;6.05;;;1.30;;
72611;SDS011;60655;52.182;4.474;2023-12-28T01:49:26;6.10;;;1.73;;
72611;SDS011;60655;52.182;4.474;2023-12-28T01:51:27;9.63;;;2.10;;
72611;SDS011;60655;52.182;4.474;2023-12-28T01:53:29;9.73;;;1.70;;
72611;SDS011;60655;52.182;4.474;2023-12-28T01:55:30;5.95;;;1.42;;
72611;SDS011;60655;52.182;4.474;2023-12-28T01:57:32;7.75;;;1.88;;
72611;SDS011;60655;52.182;4.474;2023-12-28T01:59:33;11.43;;;1.98;;
72611;SDS011;60655;52.182;4.474;2023-12-28T02:01:34;6.32;;;1.80;;
72611;SDS011;60655;52.182;4.474;2023-12-28T02:03:36;14.77;;;2.00;;
72611;SDS011;60655;52.182;4.474;2023-12-28T02:05:37;9.27;;;1.73;;
72611;SDS011;60655;52.182;4.474;2023-12-28T02:07:38;6.22;;;1.30;;
72611;SDS011;60655;52.182;4.474;2023-12-28T02:09:39;11.57;;;1.60;;
72611;SDS011;60655;52.182;4.474;2023-12-28T02:11:40;8.50;;;1.38;;
72611;SDS011;60655;52.182;4.474;2023-12-28T02:13:41;8.00;;;1.60;;
72611;SDS011;60655;52.182;4.474;2023-12-28T02:15:43;15.38;;;1.98;;
72611;SDS011;60655;52.182;4.474;2023-12-28T02:18:01;15.63;;;1.90;;
72611;SDS011;60655;52.182;4.474;2023-12-28T02:20:06;12.85;;;1.75;;
72611;SDS011;60655;52.182;4.474;2023-12-28T02:22:08;8.77;;;1.70;;
72611;SDS011;60655;52.182;4.474;2023-12-28T02:24:09;8.77;;;1.58;;
72611;SDS011;60655;52.182;4.474;2023-12-28T02:26:10;10.02;;;1.45;;
72611;SDS011;60655;52.182;4.474;2023-12-28T02:28:11;7.93;;;1.40;;
72611;SDS011;60655;52.182;4.474;2023-12-28T02:30:13;10.38;;;1.50;;
72611;SDS011;60655;52.182;4.474;2023-12-28T02:32:16;10.95;;;1.33;;
72611;SDS011;60655;52.182;4.474;2023-12-28T02:34:25;8.68;;;1.60;;
72611;SDS011;60655;52.182;4.474;2023-12-28T02:36:34;15.68;;;1.88;;
72611;SDS011;60655;52.182;4.474;2023-12-28T02:38:37;8.65;;;1.17;;
72611;SDS011;60655;52.182;4.474;2023-12-28T02:40:40;11.60;;;1.25;;
72611;SDS011;60655;52.182;4.474;2023-12-28T02:42:46;12.32;;;1.40;;
72611;SDS011;60655;52.182;4.474;2023-12-28T02:44:47;8.05;;;1.15;;
72611;SDS011;60655;52.182;4.474;2023-12-28T02:46:48;11.57;;;1.65;;
72611;SDS011;60655;52.182;4.474;2023-12-28T02:48:49;7.85;;;1.15;;
72611;SDS011;60655;52.182;4.474;2023-12-28T02:50:50;13.95;;;1.65;;
72611;SDS011;60655;52.182;4.474;2023-12-28T02:52:51;8.25;;;0.93;;
72611;SDS011;60655;52.182;4.474;2023-12-28T02:54:52;6.50;;;1.15;;
72611;SDS011;60655;52.182;4.474;2023-12-28T02:56:54;12.57;;;2.13;;
72611;SDS011;60655;52.182;4.474;2023-12-28T02:58:54;10.02;;;1.13;;
72611;SDS011;60655;52.182;4.474;2023-12-28T03:00:55;9.73;;;0.95;;
72611;SDS011;60655;52.182;4.474;2023-12-28T03:02:56;11.20;;;1.60;;
72611;SDS011;60655;52.182;4.474;2023-12-28T03:04:57;13.25;;;1.95;;
72611;SDS011;60655;52.182;4.474;2023-12-28T03:06:58;18.73;;;2.25;;
72611;SDS011;60655;52.182;4.474;2023-12-28T03:08:59;12.30;;;1.50;;
72611;SDS011;60655;52.182;4.474;2023-12-28T03:11:01;8.98;;;1.27;;
72611;SDS011;60655;52.182;4.474;2023-12-28T03:13:02;9.48;;;1.50;;
72611;SDS011;60655;52.182;4.474;2023-12-28T03:15:03;7.75;;;1.35;;
72611;SDS011;60655;52.182;4.474;2023-12-28T03:17:05;11.70;;;1.58;;
72611;SDS011;60655;52.182;4.474;2023-12-28T03:19:06;13.52;;;1.65;;
72611;SDS011;60655;52.182;4.474;2023-12-28T03:21:07;10.95;;;1.52;;
72611;SDS011;60655;52.182;4.474;2023-12-28T03:23:08;13.85;;;2.05;;
72611;SDS011;60655;52.182;4.474;2023-12-28T03:25:11;10.85;;;1.30;;
72611;SDS011;60655;52.182;4.474;2023-12-28T03:27:12;11.98;;;1.75;;
72611;SDS011;60655;52.182;4.474;2023-12-28T03:29:13;10.23;;;1.20;;
72611;SDS011;60655;52.182;4.474;2023-12-28T03:31:14;11.80;;;1.50;;
72611;SDS011;60655;52.182;4.474;2023-12-28T03:33:15;13.63;;;1.85;;
72611;SDS011;60655;52.182;4.474;2023-12-28T03:35:16;9.75;;;1.73;;
72611;SDS011;60655;52.182;4.474;2023-12-28T03:37:17;16.58;;;1.65;;
72611;SDS011;60655;52.182;4.474;2023-12-28T03:39:18;15.65;;;1.77;;
72611;SDS011;60655;52.182;4.474;2023-12-28T03:41:19;9.65;;;1.73;;
72611;SDS011;60655;52.182;4.474;2023-12-28T03:43:20;10.38;;;1.50;;
72611;SDS011;60655;52.182;4.474;2023-12-28T03:45:21;11.18;;;1.35;;
72611;SDS011;60655;52.182;4.474;2023-12-28T03:47:22;15.10;;;1.83;;
72611;SDS011;60655;52.182;4.474;2023-12-28T03:49:24;14.48;;;2.08;;
72611;SDS011;60655;52.182;4.474;2023-12-28T03:51:25;17.17;;;1.85;;
72611;SDS011;60655;52.182;4.474;2023-12-28T03:53:26;13.27;;;1.65;;
72611;SDS011;60655;52.182;4.474;2023-12-28T03:55:27;15.57;;;1.77;;
72611;SDS011;60655;52.182;4.474;2023-12-28T03:57:28;12.75;;;1.85;;
72611;SDS011;60655;52.182;4.474;2023-12-28T03:59:29;12.07;;;1.60;;
72611;SDS011;60655;52.182;4.474;2023-12-28T04:01:30;7.28;;;1.25;;
72611;SDS011;60655;52.182;4.474;2023-12-28T04:03:30;12.10;;;1.73;;
72611;SDS011;60655;52.182;4.474;2023-12-28T04:05:31;10.10;;;1.38;;
72611;SDS011;60655;52.182;4.474;2023-12-28T04:07:32;11.68;;;1.85;;
72611;SDS011;60655;52.182;4.474;2023-12-28T04:09:34;9.35;;;1.50;;
72611;SDS011;60655;52.182;4.474;2023-12-28T04:11:35;10.85;;;1.30;;
72611;SDS011;60655;52.182;4.474;2023-12-28T04:13:36;9.88;;;1.60;;
72611;SDS011;60655;52.182;4.474;2023-12-28T04:15:37;9.45;;;1.38;;
72611;SDS011;60655;52.182;4.474;2023-12-28T04:17:39;10.43;;;1.45;;
72611;SDS011;60655;52.182;4.474;2023-12-28T04:19:40;11.50;;;1.30;;
72611;SDS011;60655;52.182;4.474;2023-12-28T04:21:44;14.77;;;1.80;;
72611;SDS011;60655;52.182;4.474;2023-12-28T04:23:45;12.55;;;1.27;;
72611;SDS011;60655;52.182;4.474;2023-12-28T04:25:46;9.43;;;1.58;;
72611;SDS011;60655;52.182;4.474;2023-12-28T04:27:47;12.68;;;1.95;;
72611;SDS011;60655;52.182;4.474;2023-12-28T04:29:47;15.32;;;1.80;;
72611;SDS011;60655;52.182;4.474;2023-12-28T04:31:48;14.63;;;1.60;;
72611;SDS011;60655;52.182;4.474;2023-12-28T04:33:49;13.52;;;1.60;;
72611;SDS011;60655;52.182;4.474;2023-12-28T04:35:50;12.73;;;1.75;;
72611;SDS011;60655;52.182;4.474;2023-12-28T04:37:51;16.60;;;2.00;;
72611;SDS011;60655;52.182;4.474;2023-12-28T04:39:52;14.77;;;1.80;;
72611;SDS011;60655;52.182;4.474;2023-12-28T04:41:56;16.75;;;1.60;;
72611;SDS011;60655;52.182;4.474;2023-12-28T04:43:57;13.27;;;1.88;;
72611;SDS011;60655;52.182;4.474;2023-12-28T04:46:02;15.27;;;1.50;;
72611;SDS011;60655;52.182;4.474;2023-12-28T04:48:03;15.75;;;1.73;;
72611;SDS011;60655;52.182;4.474;2023-12-28T04:50:05;12.88;;;2.05;;
72611;SDS011;60655;52.182;4.474;2023-12-28T04:52:07;15.20;;;2.17;;
72611;SDS011;60655;52.182;4.474;2023-12-28T04:54:08;13.02;;;1.85;;
72611;SDS011;60655;52.182;4.474;2023-12-28T04:56:09;13.80;;;1.80;;
72611;SDS011;60655;52.182;4.474;2023-12-28T04:58:10;12.63;;;2.13;;
72611;SDS011;60655;52.182;4.474;2023-12-28T05:00:12;17.30;;;1.88;;
72611;SDS011;60655;52.182;4.474;2023-12-28T05:02:13;16.00;;;1.60;;
72611;SDS011;60655;52.182;4.474;2023-12-28T05:04:14;18.30;;;2.60;;
72611;SDS011;60655;52.182;4.474;2023-12-28T05:06:15;16.17;;;1.80;;
72611;SDS011;60655;52.182;4.474;2023-12-28T05:08:15;19.02;;;1.70;;
72611;SDS011;60655;52.182;4.474;2023-12-28T05:10:16;13.65;;;1.48;;
72611;SDS011;60655;52.182;4.474;2023-12-28T05:12:17;14.93;;;1.90;;
72611;SDS011;60655;52.182;4.474;2023-12-28T05:14:18;13.82;;;1.50;;
72611;SDS011;60655;52.182;4.474;2023-12-28T05:16:20;23.02;;;2.55;;
72611;SDS011;60655;52.182;4.474;2023-12-28T05:18:21;8.82;;;1.30;;
72611;SDS011;60655;52.182;4.474;2023-12-28T05:20:22;19.65;;;2.15;;
72611;SDS011;60655;52.182;4.474;2023-12-28T05:22:22;12.05;;;2.58;;
72611;SDS011;60655;52.182;4.474;2023-12-28T05:24:23;23.05;;;1.95;;
72611;SDS011;60655;52.182;4.474;2023-12-28T05:26:24;11.35;;;1.52;;
72611;SDS011;60655;52.182;4.474;2023-12-28T05:28:26;16.45;;;2.03;;
72611;SDS011;60655;52.182;4.474;2023-12-28T05:30:27;15.68;;;1.92;;
72611;SDS011;60655;52.182;4.474;2023-12-28T05:32:28;18.60;;;1.98;;
72611;SDS011;60655;52.182;4.474;2023-12-28T05:34:29;15.95;;;1.63;;
72611;SDS011;60655;52.182;4.474;2023-12-28T05:36:30;17.40;;;2.03;;
72611;SDS011;60655;52.182;4.474;2023-12-28T05:38:31;15.70;;;2.40;;
72611;SDS011;60655;52.182;4.474;2023-12-28T05:40:32;15.77;;;2.10;;
72611;SDS011;60655;52.182;4.474;2023-12-28T05:42:33;17.80;;;2.08;;
72611;SDS011;60655;52.182;4.474;2023-12-28T05:44:34;18.00;;;1.80;;
72611;SDS011;60655;52.182;4.474;2023-12-28T05:46:35;22.77;;;2.15;;
72611;SDS011;60655;52.182;4.474;2023-12-28T05:48:35;11.90;;;1.75;;
72611;SDS011;60655;52.182;4.474;2023-12-28T05:50:36;16.73;;;2.05;;
72611;SDS011;60655;52.182;4.474;2023-12-28T05:52:37;21.85;;;2.85;;
72611;SDS011;60655;52.182;4.474;2023-12-28T05:54:38;20.60;;;2.60;;
72611;SDS011;60655;52.182;4.474;2023-12-28T05:56:39;19.20;;;2.22;;
72611;SDS011;60655;52.182;4.474;2023-12-28T05:58:40;19.30;;;1.92;;
72611;SDS011;60655;52.182;4.474;2023-12-28T06:00:41;21.75;;;2.17;;
72611;SDS011;60655;52.182;4.474;2023-12-28T06:02:43;15.98;;;2.25;;
72611;SDS011;60655;52.182;4.474;2023-12-28T06:04:44;17.92;;;2.50;;
72611;SDS011;60655;52.182;4.474;2023-12-28T06:06:45;20.95;;;2.63;;
72611;SDS011;60655;52.182;4.474;2023-12-28T06:08:46;18.02;;;2.30;;
72611;SDS011;60655;52.182;4.474;2023-12-28T06:10:47;20.20;;;2.50;;
72611;SDS011;60655;52.182;4.474;2023-12-28T06:12:47;21.77;;;1.98;;
72611;SDS011;60655;52.182;4.474;2023-12-28T06:14:48;20.52;;;2.20;;
72611;SDS011;60655;52.182;4.474;2023-12-28T06:16:49;21.23;;;2.08;;
72611;SDS011;60655;52.182;4.474;2023-12-28T06:18:50;16.60;;;2.28;;
72611;SDS011;60655;52.182;4.474;2023-12-28T06:20:51;24.20;;;2.45;;
72611;SDS011;60655;52.182;4.474;2023-12-28T06:22:52;21.52;;;2.08;;
72611;SDS011;60655;52.182;4.474;2023-12-28T06:24:54;22.83;;;2.63;;
72611;SDS011;60655;52.182;4.474;2023-12-28T06:26:55;18.42;;;2.65;;
72611;SDS011;60655;52.182;4.474;2023-12-28T06:28:57;22.08;;;2.42;;
72611;SDS011;60655;52.182;4.474;2023-12-28T06:30:58;22.10;;;2.38;;
72611;SDS011;60655;52.182;4.474;2023-12-28T06:33:01;20.35;;;2.72;;
72611;SDS011;60655;52.182;4.474;2023-12-28T06:35:02;23.17;;;2.38;;
72611;SDS011;60655;52.182;4.474;2023-12-28T06:37:03;20.83;;;2.78;;
72611;SDS011;60655;52.182;4.474;2023-12-28T06:39:04;26.10;;;2.75;;
72611;SDS011;60655;52.182;4.474;2023-12-28T06:41:11;21.92;;;2.47;;
72611;SDS011;60655;52.182;4.474;2023-12-28T06:43:13;18.58;;;2.33;;
72611;SDS011;60655;52.182;4.474;2023-12-28T06:45:14;21.02;;;2.40;;
72611;SDS011;60655;52.182;4.474;2023-12-28T06:47:15;23.38;;;2.17;;
72611;SDS011;60655;52.182;4.474;2023-12-28T06:49:16;25.55;;;2.83;;
72611;SDS011;60655;52.182;4.474;2023-12-28T06:51:17;15.23;;;1.98;;
72611;SDS011;60655;52.182;4.474;2023-12-28T06:53:19;19.83;;;3.35;;
72611;SDS011;60655;52.182;4.474;2023-12-28T06:55:19;23.38;;;2.35;;
72611;SDS011;60655;52.182;4.474;2023-12-28T06:57:20;21.92;;;2.08;;
72611;SDS011;60655;52.182;4.474;2023-12-28T06:59:22;24.05;;;2.85;;
72611;SDS011;60655;52.182;4.474;2023-12-28T07:01:22;17.92;;;2.58;;
72611;SDS011;60655;52.182;4.474;2023-12-28T07:03:23;21.58;;;2.22;;
72611;SDS011;60655;52.182;4.474;2023-12-28T07:05:25;23.08;;;2.28;;
72611;SDS011;60655;52.182;4.474;2023-12-28T07:07:26;22.25;;;2.72;;
72611;SDS011;60655;52.182;4.474;2023-12-28T07:09:27;22.90;;;2.17;;
72611;SDS011;60655;52.182;4.474;2023-12-28T07:11:28;28.20;;;2.67;;
72611;SDS011;60655;52.182;4.474;2023-12-28T07:13:29;20.13;;;2.20;;
72611;SDS011;60655;52.182;4.474;2023-12-28T07:15:30;23.75;;;2.63;;
72611;SDS011;60655;52.182;4.474;2023-12-28T07:17:31;23.33;;;2.47;;
72611;SDS011;60655;52.182;4.474;2023-12-28T07:19:32;24.33;;;2.90;;
72611;SDS011;60655;52.182;4.474;2023-12-28T07:21:33;21.27;;;2.67;;
72611;SDS011;60655;52.182;4.474;2023-12-28T07:23:33;19.73;;;2.25;;
72611;SDS011;60655;52.182;4.474;2023-12-28T07:25:34;25.58;;;3.13;;
72611;SDS011;60655;52.182;4.474;2023-12-28T07:27:36;21.60;;;2.60;;
72611;SDS011;60655;52.182;4.474;2023-12-28T07:29:40;18.85;;;2.30;;
72611;SDS011;60655;52.182;4.474;2023-12-28T07:31:41;25.13;;;2.58;;
72611;SDS011;60655;52.182;4.474;2023-12-28T07:33:41;17.50;;;2.88;;
72611;SDS011;60655;52.182;4.474;2023-12-28T07:35:42;21.08;;;1.90;;
72611;SDS011;60655;52.182;4.474;2023-12-28T07:37:43;32.15;;;2.80;;
72611;SDS011;60655;52.182;4.474;2023-12-28T07:39:45;20.77;;;2.33;;
72611;SDS011;60655;52.182;4.474;2023-12-28T07:41:46;14.05;;;2.13;;
72611;SDS011;60655;52.182;4.474;2023-12-28T07:43:47;21.52;;;2.00;;
72611;SDS011;60655;52.182;4.474;2023-12-28T07:45:49;16.48;;;2.25;;
72611;SDS011;60655;52.182;4.474;2023-12-28T07:47:50;20.08;;;2.30;;
72611;SDS011;60655;52.182;4.474;2023-12-28T07:49:52;24.35;;;2.50;;
72611;SDS011;60655;52.182;4.474;2023-12-28T07:51:53;22.50;;;2.22;;
72611;SDS011;60655;52.182;4.474;2023-12-28T07:53:53;27.65;;;2.88;;
72611;SDS011;60655;52.182;4.474;2023-12-28T07:55:54;18.35;;;2.33;;
72611;SDS011;60655;52.182;4.474;2023-12-28T07:57:56;16.52;;;1.95;;
72611;SDS011;60655;52.182;4.474;2023-12-28T07:59:57;22.65;;;2.55;;
72611;SDS011;60655;52.182;4.474;2023-12-28T08:01:58;12.50;;;1.75;;
72611;SDS011;60655;52.182;4.474;2023-12-28T08:03:59;18.88;;;2.25;;
72611;SDS011;60655;52.182;4.474;2023-12-28T08:06:01;23.40;;;2.58;;
72611;SDS011;60655;52.182;4.474;2023-12-28T08:08:02;20.45;;;2.83;;
72611;SDS011;60655;52.182;4.474;2023-12-28T08:10:03;19.25;;;2.50;;
72611;SDS011;60655;52.182;4.474;2023-12-28T08:12:04;26.20;;;2.40;;
72611;SDS011;60655;52.182;4.474;2023-12-28T08:14:05;24.20;;;2.75;;
72611;SDS011;60655;52.182;4.474;2023-12-28T08:16:06;19.90;;;2.58;;
72611;SDS011;60655;52.182;4.474;2023-12-28T08:18:07;18.92;;;2.63;;
72611;SDS011;60655;52.182;4.474;2023-12-28T08:20:08;20.95;;;2.08;;
72611;SDS011;60655;52.182;4.474;2023-12-28T08:22:09;16.10;;;2.10;;
72611;SDS011;60655;52.182;4.474;2023-12-28T08:24:10;21.40;;;1.95;;
72611;SDS011;60655;52.182;4.474;2023-12-28T08:26:11;18.27;;;1.95;;
72611;SDS011;60655;52.182;4.474;2023-12-28T08:28:12;17.77;;;2.03;;
72611;SDS011;60655;52.182;4.474;2023-12-28T08:30:13;22.98;;;2.45;;
72611;SDS011;60655;52.182;4.474;2023-12-28T08:32:14;19.10;;;2.28;;
72611;SDS011;60655;52.182;4.474;2023-12-28T08:34:15;25.02;;;2.42;;
72611;SDS011;60655;52.182;4.474;2023-12-28T08:36:16;21.95;;;1.88;;
72611;SDS011;60655;52.182;4.474;2023-12-28T08:38:18;15.68;;;1.70;;
72611;SDS011;60655;52.182;4.474;2023-12-28T08:40:19;20.42;;;2.70;;
72611;SDS011;60655;52.182;4.474;2023-12-28T08:42:20;19.92;;;2.15;;
72611;SDS011;60655;52.182;4.474;2023-12-28T08:44:21;17.42;;;2.00;;
72611;SDS011;60655;52.182;4.474;2023-12-28T08:46:22;19.17;;;1.90;;
72611;SDS011;60655;52.182;4.474;2023-12-28T08:48:25;23.00;;;1.92;;
72611;SDS011;60655;52.182;4.474;2023-12-28T08:50:26;15.68;;;1.80;;
72611;SDS011;60655;52.182;4.474;2023-12-28T08:52:27;27.17;;;2.67;;
72611;SDS011;60655;52.182;4.474;2023-12-28T08:54:27;16.05;;;1.98;;
72611;SDS011;60655;52.182;4.474;2023-12-28T08:56:28;19.25;;;2.33;;
72611;SDS011;60655;52.182;4.474;2023-12-28T08:58:31;15.23;;;2.15;;
72611;SDS011;60655;52.182;4.474;2023-12-28T09:00:32;23.20;;;2.10;;
72611;SDS011;60655;52.182;4.474;2023-12-28T09:02:33;17.58;;;2.00;;
72611;SDS011;60655;52.182;4.474;2023-12-28T09:04:34;23.67;;;2.33;;
72611;SDS011;60655;52.182;4.474;2023-12-28T09:06:35;19.55;;;2.45;;
72611;SDS011;60655;52.182;4.474;2023-12-28T09:08:36;14.50;;;2.72;;
72611;SDS011;60655;52.182;4.474;2023-12-28T09:10:37;16.42;;;2.15;;
72611;SDS011;60655;52.182;4.474;2023-12-28T09:12:38;13.98;;;2.10;;
72611;SDS011;60655;52.182;4.474;2023-12-28T09:14:40;19.92;;;1.98;;
72611;SDS011;60655;52.182;4.474;2023-12-28T09:16:41;21.92;;;2.38;;
72611;SDS011;60655;52.182;4.474;2023-12-28T09:18:44;20.65;;;2.03;;
72611;SDS011;60655;52.182;4.474;2023-12-28T09:20:45;17.95;;;2.08;;
72611;SDS011;60655;52.182;4.474;2023-12-28T09:22:46;20.88;;;2.42;;
72611;SDS011;60655;52.182;4.474;2023-12-28T09:24:48;15.18;;;2.10;;
72611;SDS011;60655;52.182;4.474;2023-12-28T09:26:49;18.35;;;2.80;;
72611;SDS011;60655;52.182;4.474;2023-12-28T09:28:50;18.90;;;3.05;;
72611;SDS011;60655;52.182;4.474;2023-12-28T09:30:51;17.38;;;1.60;;
72611;SDS011;60655;52.182;4.474;2023-12-28T09:32:52;14.02;;;2.20;;
72611;SDS011;60655;52.182;4.474;2023-12-28T09:34:53;20.25;;;2.15;;
72611;SDS011;60655;52.182;4.474;2023-12-28T09:36:54;18.38;;;2.17;;
72611;SDS011;60655;52.182;4.474;2023-12-28T09:38:55;18.00;;;2.20;;
72611;SDS011;60655;52.182;4.474;2023-12-28T09:40:57;29.90;;;3.15;;
72611;SDS011;60655;52.182;4.474;2023-12-28T09:45:08;20.25;;;2.60;;
72611;SDS011;60655;52.182;4.474;2023-12-28T09:47:10;18.42;;;2.10;;
72611;SDS011;60655;52.182;4.474;2023-12-28T09:49:13;18.63;;;2.35;;
72611;SDS011;60655;52.182;4.474;2023-12-28T09:51:14;16.55;;;1.92;;
72611;SDS011;60655;52.182;4.474;2023-12-28T09:53:16;20.17;;;3.45;;
72611;SDS011;60655;52.182;4.474;2023-12-28T09:55:17;17.52;;;2.38;;
72611;SDS011;60655;52.182;4.474;2023-12-28T09:57:18;15.48;;;2.15;;
72611;SDS011;60655;52.182;4.474;2023-12-28T09:59:19;22.13;;;2.63;;
72611;SDS011;60655;52.182;4.474;2023-12-28T10:01:21;22.45;;;1.92;;
72611;SDS011;60655;52.182;4.474;2023-12-28T10:03:22;20.60;;;2.15;;
72611;SDS011;60655;52.182;4.474;2023-12-28T10:05:23;19.83;;;1.77;;
72611;SDS011;60655;52.182;4.474;2023-12-28T10:07:24;20.88;;;2.08;;
72611;SDS011;60655;52.182;4.474;2023-12-28T10:09:27;22.23;;;2.35;;
72611;SDS011;60655;52.182;4.474;2023-12-28T10:11:28;21.67;;;2.50;;
72611;SDS011;60655;52.182;4.474;2023-12-28T10:13:32;18.98;;;2.70;;
72611;SDS011;60655;52.182;4.474;2023-12-28T10:15:35;20.48;;;1.98;;
72611;SDS011;60655;52.182;4.474;2023-12-28T10:17:36;25.17;;;2.67;;
72611;SDS011;60655;52.182;4.474;2023-12-28T10:19:38;18.65;;;2.35;;
72611;SDS011;60655;52.182;4.474;2023-12-28T10:21:42;11.13;;;1.77;;
72611;SDS011;60655;52.182;4.474;2023-12-28T10:23:44;19.83;;;2.63;;
72611;SDS011;60655;52.182;4.474;2023-12-28T10:25:45;23.63;;;2.53;;
72611;SDS011;60655;52.182;4.474;2023-12-28T10:27:49;19.20;;;2.60;;
72611;SDS011;60655;52.182;4.474;2023-12-28T10:29:57;19.65;;;2.25;;
72611;SDS011;60655;52.182;4.474;2023-12-28T10:31:58;27.73;;;2.60;;
72611;SDS011;60655;52.182;4.474;2023-12-28T10:34:01;14.27;;;1.88;;
72611;SDS011;60655;52.182;4.474;2023-12-28T10:36:06;24.80;;;2.67;;
72611;SDS011;60655;52.182;4.474;2023-12-28T10:38:08;26.17;;;2.60;;
72611;SDS011;60655;52.182;4.474;2023-12-28T10:40:13;15.40;;;2.17;;
72611;SDS011;60655;52.182;4.474;2023-12-28T10:42:23;18.17;;;1.95;;
72611;SDS011;60655;52.182;4.474;2023-12-28T10:44:31;19.52;;;2.30;;
72611;SDS011;60655;52.182;4.474;2023-12-28T10:46:39;15.07;;;1.83;;
72611;SDS011;60655;52.182;4.474;2023-12-28T10:48:44;24.20;;;2.42;;
72611;SDS011;60655;52.182;4.474;2023-12-28T10:50:48;18.45;;;2.33;;
72611;SDS011;60655;52.182;4.474;2023-12-28T10:52:50;18.25;;;2.15;;
72611;SDS011;60655;52.182;4.474;2023-12-28T10:55:00;21.23;;;2.10;;
72611;SDS011;60655;52.182;4.474;2023-12-28T10:57:07;12.82;;;1.83;;
72611;SDS011;60655;52.182;4.474;2023-12-28T11:01:54;25.10;;;2.75;;
72611;SDS011;60655;52.182;4.474;2023-12-28T11:06:26;22.67;;;2.60;;
72611;SDS011;60655;52.182;4.474;2023-12-28T11:08:29;17.58;;;2.55;;
72611;SDS011;60655;52.182;4.474;2023-12-28T11:10:32;22.67;;;2.45;;
72611;SDS011;60655;52.182;4.474;2023-12-28T11:12:35;19.60;;;2.20;;
72611;SDS011;60655;52.182;4.474;2023-12-28T11:14:41;15.68;;;2.25;;
72611;SDS011;60655;52.182;4.474;2023-12-28T11:16:43;23.42;;;2.35;;
72611;SDS011;60655;52.182;4.474;2023-12-28T11:18:45;12.75;;;2.17;;
72611;SDS011;60655;52.182;4.474;2023-12-28T11:20:46;23.88;;;2.20;;
72611;SDS011;60655;52.182;4.474;2023-12-28T11:22:49;20.50;;;2.63;;
72611;SDS011;60655;52.182;4.474;2023-12-28T11:24:55;25.00;;;3.22;;
72611;SDS011;60655;52.182;4.474;2023-12-28T11:26:57;19.35;;;2.22;;
72611;SDS011;60655;52.182;4.474;2023-12-28T11:29:01;17.48;;;2.13;;
72611;SDS011;60655;52.182;4.474;2023-12-28T11:31:03;22.42;;;2.63;;
72611;SDS011;60655;52.182;4.474;2023-12-28T11:33:04;16.80;;;2.25;;
72611;SDS011;60655;52.182;4.474;2023-12-28T11:35:06;13.70;;;2.00;;
72611;SDS011;60655;52.182;4.474;2023-12-28T11:37:15;16.55;;;2.00;;
72611;SDS011;60655;52.182;4.474;2023-12-28T11:41:37;17.02;;;1.98;;
72611;SDS011;60655;52.182;4.474;2023-12-28T11:43:38;21.55;;;1.98;;
72611;SDS011;60655;52.182;4.474;2023-12-28T11:45:41;16.75;;;2.08;;
72611;SDS011;60655;52.182;4.474;2023-12-28T11:47:59;16.08;;;1.80;;
72611;SDS011;60655;52.182;4.474;2023-12-28T11:50:07;19.67;;;2.50;;
72611;SDS011;60655;52.182;4.474;2023-12-28T11:52:09;24.83;;;2.60;;
72611;SDS011;60655;52.182;4.474;2023-12-28T11:54:11;30.25;;;2.58;;
72611;SDS011;60655;52.182;4.474;2023-12-28T11:56:14;19.25;;;2.40;;
72611;SDS011;60655;52.182;4.474;2023-12-28T11:58:17;29.52;;;3.10;;
72611;SDS011;60655;52.182;4.474;2023-12-28T12:00:20;18.55;;;2.50;;
72611;SDS011;60655;52.182;4.474;2023-12-28T12:02:25;16.67;;;1.92;;
72611;SDS011;60655;52.182;4.474;2023-12-28T12:04:27;17.15;;;1.75;;
72611;SDS011;60655;52.182;4.474;2023-12-28T12:06:28;21.60;;;2.78;;
72611;SDS011;60655;52.182;4.474;2023-12-28T12:08:29;12.68;;;2.05;;
72611;SDS011;60655;52.182;4.474;2023-12-28T12:10:30;22.10;;;2.08;;
72611;SDS011;60655;52.182;4.474;2023-12-28T12:12:32;21.27;;;2.80;;